Time,TemperatureF,DewpointF,PressureIn,WindDirection,WindDirectionDegrees,WindSpeedMPH,WindSpeedGustMPH,Humidity,HourlyPrecipIn,Conditions,Clouds,dailyrainin,SoftwareType,DateUTC
2013-06-11 00:32:00,83.0,-99.9,-100.00,NW,312,1.0,2.0,-999,-99.99,,,-99.99,,2013-06-11 06:32:00,
2013-06-11 00:42:00,83.0,-99.9,-100.00,NW,312,1.0,2.0,-999,-99.99,,,-99.99,,2013-06-11 06:42:00,
2013-06-11 00:52:00,83.0,-99.9,-100.00,NW,312,1.0,2.0,-999,-99.99,,,-99.99,,2013-06-11 06:52:00,
2013-06-11 01:50:00,76.0,-99.9,-100.00,West,277,4.0,4.0,-999,-99.99,,,-99.99,,2013-06-11 07:50:00,
2013-06-11 02:03:00,78.0,-99.9,-100.00,SW,214,0.0,0.0,-999,-99.99,,,-99.99,,2013-06-11 08:03:00,
2013-06-11 02:12:00,78.0,-99.9,-100.00,SW,214,0.0,0.0,-999,-99.99,,,-99.99,,2013-06-11 08:12:00,
2013-06-11 02:22:00,78.0,-99.9,-100.00,SSW,209,1.0,1.0,-999,-99.99,,,-99.99,,2013-06-11 08:22:00,
2013-06-11 02:32:00,76.0,-99.9,-100.00,West,277,4.0,4.0,-999,-99.99,,,-99.99,,2013-06-11 08:32:00,
2013-06-11 02:42:00,76.0,-99.9,-100.00,West,277,4.0,4.0,-999,-99.99,,,-99.99,,2013-06-11 08:42:00,
2013-06-11 02:50:00,71.0,-99.9,-100.00,West,266,2.0,2.0,-999,-99.99,,,-99.99,,2013-06-11 08:50:00,
2013-06-11 03:02:00,75.0,-99.9,-100.00,NNW,339,0.0,1.0,-999,-99.99,,,-99.99,,2013-06-11 09:02:00,
2013-06-11 03:12:00,75.0,-99.9,-100.00,NNW,339,0.0,1.0,-999,-99.99,,,-99.99,,2013-06-11 09:12:00,
2013-06-11 03:22:00,75.0,-99.9,-100.00,NNW,339,0.0,1.0,-999,-99.99,,,-99.99,,2013-06-11 09:22:00,
2013-06-11 03:33:00,71.0,-99.9,-100.00,West,266,2.0,2.0,-999,-99.99,,,-99.99,,2013-06-11 09:33:00,
2013-06-11 03:43:00,71.0,-99.9,-100.00,West,266,2.0,2.0,-999,-99.99,,,-99.99,,2013-06-11 09:43:00,
2013-06-11 05:10:00,67.0,-99.9,-100.00,WNW,285,1.0,1.0,-999,-99.99,,,-99.99,,2013-06-11 11:10:00,
2013-06-11 05:52:00,67.0,-99.9,-100.00,WNW,285,1.0,1.0,-999,-99.99,,,-99.99,,2013-06-11 11:52:00,
2013-06-11 06:02:00,67.0,-99.9,-100.00,WNW,285,1.0,1.0,-999,-99.99,,,-99.99,,2013-06-11 12:02:00,
2013-06-11 07:30:00,73.0,-99.9,-100.00,West,273,2.0,2.0,-999,-99.99,,,-99.99,,2013-06-11 13:30:00,
2013-06-11 08:02:00,73.0,-99.9,-100.00,West,273,2.0,2.0,-999,-99.99,,,-99.99,,2013-06-11 14:02:00,
2013-06-11 08:12:00,73.0,-99.9,-100.00,West,273,2.0,2.0,-999,-99.99,,,-99.99,,2013-06-11 14:12:00,
2013-06-11 08:22:00,73.0,-99.9,-100.00,West,273,2.0,2.0,-999,-99.99,,,-99.99,,2013-06-11 14:22:00,
2013-06-11 10:03:00,84.0,-99.9,-100.00,NW,312,1.0,3.0,-999,-99.99,,,-99.99,,2013-06-11 16:03:00,
2013-06-11 10:13:00,84.0,-99.9,-100.00,NW,312,1.0,3.0,-999,-99.99,,,-99.99,,2013-06-11 16:13:00,
2013-06-11 10:23:00,84.0,-99.9,-100.00,NW,312,1.0,3.0,-999,-99.99,,,-99.99,,2013-06-11 16:23:00,
2013-06-11 11:02:00,87.0,-99.9,-100.00,WNW,300,2.0,3.0,-999,-99.99,,,-99.99,,2013-06-11 17:02:00,
2013-06-11 11:12:00,87.0,-99.9,-100.00,WNW,300,2.0,3.0,-999,-99.99,,,-99.99,,2013-06-11 17:12:00,
2013-06-11 11:22:00,87.0,-99.9,-100.00,WNW,300,2.0,3.0,-999,-99.99,,,-99.99,,2013-06-11 17:22:00,
2013-06-11 11:32:00,90.0,-99.9,-100.00,NW,324,1.0,3.0,-999,-99.99,,,-99.99,,2013-06-11 17:32:00,
2013-06-11 11:43:00,90.0,-99.9,-100.00,NW,324,1.0,3.0,-999,-99.99,,,-99.99,,2013-06-11 17:43:00,
2013-06-11 12:22:00,91.0,-99.9,-100.00,West,259,3.0,3.0,-999,-99.99,,,-99.99,,2013-06-11 18:22:00,
2013-06-11 12:33:00,91.0,-99.9,-100.00,West,259,3.0,3.0,-999,-99.99,,,-99.99,,2013-06-11 18:33:00,
2013-06-11 12:50:00,94.0,-99.9,-100.00,West,268,1.0,4.0,-999,-99.99,,,-99.99,,2013-06-11 18:50:00,
2013-06-11 12:53:00,92.0,-99.9,-100.00,WNW,283,2.0,3.0,-999,-99.99,,,-99.99,,2013-06-11 18:53:00,
2013-06-11 13:03:00,92.0,-99.9,-100.00,WNW,283,2.0,3.0,-999,-99.99,,,-99.99,,2013-06-11 19:03:00,
2013-06-11 13:13:00,92.0,-99.9,-100.00,WNW,283,2.0,3.0,-999,-99.99,,,-99.99,,2013-06-11 19:13:00,
2013-06-11 15:00:00,98.0,-99.9,-100.00,WNW,283,5.0,6.0,-999,-99.99,,,-99.99,,2013-06-11 21:00:00,
2013-06-11 15:30:00,99.0,-99.9,-100.00,WNW,294,3.0,4.0,-999,-99.99,,,-99.99,,2013-06-11 21:30:00,
2013-06-11 15:53:00,98.0,-99.9,-100.00,WNW,283,5.0,6.0,-999,-99.99,,,-99.99,,2013-06-11 21:53:00,
2013-06-11 16:22:00,99.0,-99.9,-100.00,WNW,294,3.0,4.0,-999,-99.99,,,-99.99,,2013-06-11 22:22:00,
2013-06-11 17:10:00,101.0,-99.9,-100.00,NW,309,3.0,3.0,-999,-99.99,,,-99.99,,2013-06-11 23:10:00,
2013-06-11 17:52:00,101.0,-99.9,-100.00,NW,309,3.0,3.0,-999,-99.99,,,-99.99,,2013-06-11 23:52:00,
2013-06-11 18:02:00,101.0,-99.9,-100.00,NW,309,3.0,3.0,-999,-99.99,,,-99.99,,2013-06-12 00:02:00,
2013-06-11 18:22:00,99.0,-99.9,-100.00,ENE,57,2.0,2.0,-999,-99.99,,,-99.99,,2013-06-12 00:22:00,
2013-06-11 18:32:00,99.0,-99.9,-100.00,ENE,57,2.0,2.0,-999,-99.99,,,-99.99,,2013-06-12 00:32:00,
2013-06-11 19:00:00,98.0,-99.9,-100.00,WNW,292,3.0,5.0,-999,-99.99,,,-99.99,,2013-06-12 01:00:00,
2013-06-11 19:40:00,97.0,-99.9,-100.00,WNW,291,2.0,4.0,-999,-99.99,,,-99.99,,2013-06-12 01:40:00,
2013-06-11 19:52:00,98.0,-99.9,-100.00,WNW,292,3.0,5.0,-999,-99.99,,,-99.99,,2013-06-12 01:52:00,
2013-06-11 20:22:00,97.0,-99.9,-100.00,WNW,291,2.0,4.0,-999,-99.99,,,-99.99,,2013-06-12 02:22:00,
2013-06-11 20:32:00,97.0,-99.9,-100.00,WNW,291,2.0,4.0,-999,-99.99,,,-99.99,,2013-06-12 02:32:00,
2013-06-11 20:40:00,91.0,-99.9,-100.00,WNW,303,1.0,1.0,-999,-99.99,,,-99.99,,2013-06-12 02:40:00,
2013-06-11 21:22:00,91.0,-99.9,-100.00,WNW,303,1.0,1.0,-999,-99.99,,,-99.99,,2013-06-12 03:22:00,
2013-06-11 21:30:00,87.0,-99.9,-100.00,NNW,344,1.0,2.0,-999,-99.99,,,-99.99,,2013-06-12 03:30:00,
2013-06-11 21:33:00,91.0,-99.9,-100.00,WNW,303,1.0,1.0,-999,-99.99,,,-99.99,,2013-06-12 03:33:00,
2013-06-11 22:23:00,87.0,-99.9,-100.00,NNW,344,1.0,2.0,-999,-99.99,,,-99.99,,2013-06-12 04:23:00,